sensor_id;sensor_type;location;lat;lon;timestamp;pressure;altitude;pressure_sealevel;temperature;humidity
51876;BME280;34054;52.100;5.116;2023-11-21T00:00:09;100870.28;;;9.96;100.00
51876;BME280;34054;52.100;5.116;2023-11-21T00:00:43;100877.34;;;9.97;100.00
51876;BME280;34054;52.100;5.116;2023-11-21T00:01:16;100870.84;;;9.98;100.00
51876;BME280;34054;52.100;5.116;2023-11-21T00:01:48;100880.94;;;10.02;100.00
51876;BME280;34054;52.100;5.116;2023-11-21T00:02:20;100883.22;;;10.11;100.00
51876;BME280;34054;52.100;5.116;2023-11-21T00:02:51;100875.13;;;10.16;100.00
51876;BME280;34054;52.100;5.116;2023-11-21T00:03:24;100873.75;;;10.13;100.00
51876;BME280;34054;52.100;5.116;2023-11-21T00:03:55;100877.81;;;10.11;100.00
51876;BME280;34054;52.100;5.116;2023-11-21T00:04:27;100877.81;;;10.11;100.00
51876;BME280;34054;52.100;5.116;2023-11-21T00:04:59;100877.00;;;10.15;100.00
51876;BME280;34054;52.100;5.116;2023-11-21T00:05:31;100877.91;;;10.21;100.00
51876;BME280;34054;52.100;5.116;2023-11-21T00:06:03;100875.44;;;10.19;100.00
51876;BME280;34054;52.100;5.116;2023-11-21T00:06:35;100878.56;;;10.06;100.00
51876;BME280;34054;52.100;5.116;2023-11-21T00:07:07;100880.94;;;10.02;100.00
51876;BME280;34054;52.100;5.116;2023-11-21T00:07:39;100874.38;;;9.98;100.00
51876;BME280;34054;52.100;5.116;2023-11-21T00:08:11;100879.00;;;9.98;100.00
51876;BME280;34054;52.100;5.116;2023-11-21T00:08:42;100882.25;;;10.00;100.00
51876;BME280;34054;52.100;5.116;2023-11-21T00:09:15;100880.25;;;9.90;100.00
51876;BME280;34054;52.100;5.116;2023-11-21T00:09:46;100882.63;;;9.86;100.00
51876;BME280;34054;52.100;5.116;2023-11-21T00:10:18;100888.06;;;9.86;100.00
51876;BME280;34054;52.100;5.116;2023-11-21T00:10:49;100887.00;;;9.87;100.00
51876;BME280;34054;52.100;5.116;2023-11-21T00:11:22;100885.41;;;9.92;100.00
51876;BME280;34054;52.100;5.116;2023-11-21T00:11:53;100888.69;;;9.94;100.00
51876;BME280;34054;52.100;5.116;2023-11-21T00:12:25;100888.66;;;9.88;100.00
51876;BME280;34054;52.100;5.116;2023-11-21T00:12:56;100892.66;;;9.86;100.00
51876;BME280;34054;52.100;5.116;2023-11-21T00:13:29;100891.84;;;9.85;100.00
51876;BME280;34054;52.100;5.116;2023-11-21T00:14:00;100895.44;;;9.91;100.00
51876;BME280;34054;52.100;5.116;2023-11-21T00:14:32;100894.19;;;9.99;100.00
51876;BME280;34054;52.100;5.116;2023-11-21T00:15:05;100891.47;;;9.99;100.00
51876;BME280;34054;52.100;5.116;2023-11-21T00:15:40;100896.72;;;10.05;100.00
51876;BME280;34054;52.100;5.116;2023-11-21T00:16:13;100889.06;;;10.02;100.00
51876;BME280;34054;52.100;5.116;2023-11-21T00:16:44;100885.22;;;9.98;100.00
51876;BME280;34054;52.100;5.116;2023-11-21T00:17:16;100889.66;;;10.04;100.00
51876;BME280;34054;52.100;5.116;2023-11-21T00:17:47;100890.22;;;10.06;100.00
51876;BME280;34054;52.100;5.116;2023-11-21T00:18:20;100894.31;;;10.09;100.00
51876;BME280;34054;52.100;5.116;2023-11-21T00:18:52;100893.50;;;10.09;100.00
51876;BME280;34054;52.100;5.116;2023-11-21T00:19:23;100897.28;;;10.08;100.00
51876;BME280;34054;52.100;5.116;2023-11-21T00:19:55;100899.75;;;10.09;100.00
51876;BME280;34054;52.100;5.116;2023-11-21T00:20:27;100894.88;;;10.11;100.00
51876;BME280;34054;52.100;5.116;2023-11-21T00:20:59;100902.53;;;10.14;100.00
51876;BME280;34054;52.100;5.116;2023-11-21T00:21:30;100894.56;;;10.08;100.00
51876;BME280;34054;52.100;5.116;2023-11-21T00:22:03;100895.97;;;10.10;100.00
51876;BME280;34054;52.100;5.116;2023-11-21T00:22:35;100901.13;;;10.12;100.00
51876;BME280;34054;52.100;5.116;2023-11-21T00:23:07;100899.75;;;10.09;100.00
51876;BME280;34054;52.100;5.116;2023-11-21T00:23:41;100894.84;;;10.06;100.00
51876;BME280;34054;52.100;5.116;2023-11-21T00:24:13;100902.22;;;10.11;100.00
51876;BME280;34054;52.100;5.116;2023-11-21T00:24:45;100898.50;;;10.17;100.00
51876;BME280;34054;52.100;5.116;2023-11-21T00:25:16;100900.69;;;10.20;100.00
51876;BME280;34054;52.100;5.116;2023-11-21T00:25:48;100904.41;;;10.14;100.00
51876;BME280;34054;52.100;5.116;2023-11-21T00:26:21;100908.50;;;10.16;100.00
51876;BME280;34054;52.100;5.116;2023-11-21T00:26:52;100905.03;;;10.21;100.00
51876;BME280;34054;52.100;5.116;2023-11-21T00:27:24;100900.44;;;10.21;100.00
51876;BME280;34054;52.100;5.116;2023-11-21T00:27:55;100898.22;;;10.18;100.00
51876;BME280;34054;52.100;5.116;2023-11-21T00:28:28;100898.41;;;10.12;100.00
51876;BME280;34054;52.100;5.116;2023-11-21T00:28:59;100904.09;;;10.10;100.00
51876;BME280;34054;52.100;5.116;2023-11-21T00:29:31;100904.81;;;10.00;100.00
51876;BME280;34054;52.100;5.116;2023-11-21T00:30:04;100906.81;;;10.10;100.00
51876;BME280;34054;52.100;5.116;2023-11-21T00:30:38;100895.66;;;10.06;100.00
51876;BME280;34054;52.100;5.116;2023-11-21T00:31:10;100903.78;;;10.06;100.00
51876;BME280;34054;52.100;5.116;2023-11-21T00:31:42;100902.47;;;10.09;100.00
51876;BME280;34054;52.100;5.116;2023-11-21T00:32:14;100902.47;;;10.09;100.00
51876;BME280;34054;52.100;5.116;2023-11-21T00:32:46;100899.25;;;10.12;100.00
51876;BME280;34054;52.100;5.116;2023-11-21T00:33:18;100900.38;;;10.16;100.00
51876;BME280;34054;52.100;5.116;2023-11-21T00:33:50;100896.34;;;10.19;100.00
51876;BME280;34054;52.100;5.116;2023-11-21T00:34:22;100900.69;;;10.20;100.00
51876;BME280;34054;52.100;5.116;2023-11-21T00:34:54;100903.91;;;10.17;100.00
51876;BME280;34054;52.100;5.116;2023-11-21T00:35:26;100899.63;;;10.21;100.00
51876;BME280;34054;52.100;5.116;2023-11-21T00:35:57;100902.09;;;10.23;100.00
51876;BME280;34054;52.100;5.116;2023-11-21T00:36:29;100905.03;;;10.21;100.00
51876;BME280;34054;52.100;5.116;2023-11-21T00:37:01;100897.16;;;10.19;100.00
51876;BME280;34054;52.100;5.116;2023-11-21T00:37:33;100896.59;;;10.17;100.00
51876;BME280;34054;52.100;5.116;2023-11-21T00:38:05;100897.66;;;10.16;100.00
51876;BME280;34054;52.100;5.116;2023-11-21T00:38:36;100898.84;;;10.26;100.00
51876;BME280;34054;52.100;5.116;2023-11-21T00:39:11;100901.06;;;10.29;100.00
51876;BME280;34054;52.100;5.116;2023-11-21T00:39:43;100898.81;;;10.20;100.00
51876;BME280;34054;52.100;5.116;2023-11-21T00:40:15;100899.06;;;10.19;100.00
51876;BME280;34054;52.100;5.116;2023-11-21T00:40:50;100890.59;;;10.15;100.00
51876;BME280;34054;52.100;5.116;2023-11-21T00:41:22;100897.75;;;10.21;100.00
51876;BME280;34054;52.100;5.116;2023-11-21T00:41:55;100902.84;;;9.96;100.00
51876;BME280;34054;52.100;5.116;2023-11-21T00:42:26;100901.38;;;9.88;100.00
51876;BME280;34054;52.100;5.116;2023-11-21T00:42:58;100892.66;;;9.86;100.00
51876;BME280;34054;52.100;5.116;2023-11-21T00:43:30;100899.22;;;9.90;100.00
51876;BME280;34054;52.100;5.116;2023-11-21T00:44:04;100896.25;;;9.92;100.00
51876;BME280;34054;52.100;5.116;2023-11-21T00:44:37;100895.75;;;9.95;100.00
51876;BME280;34054;52.100;5.116;2023-11-21T00:45:10;100891.09;;;9.90;100.00
51876;BME280;34054;52.100;5.116;2023-11-21T00:45:42;100901.69;;;9.92;100.00
51876;BME280;34054;52.100;5.116;2023-11-21T00:46:14;100893.22;;;9.88;100.00
51876;BME280;34054;52.100;5.116;2023-11-21T00:46:47;100905.47;;;9.90;100.00
51876;BME280;34054;52.100;5.116;2023-11-21T00:47:19;100901.50;;;9.98;100.00
51876;BME280;34054;52.100;5.116;2023-11-21T00:47:50;100900.19;;;10.01;100.00
51876;BME280;34054;52.100;5.116;2023-11-21T00:48:23;100899.38;;;10.00;100.00
51876;BME280;34054;52.100;5.116;2023-11-21T00:48:54;100899.22;;;9.90;100.00
51876;BME280;34054;52.100;5.116;2023-11-21T00:49:26;100905.72;;;9.89;100.00
51876;BME280;34054;52.100;5.116;2023-11-21T00:49:59;100897.00;;;9.87;100.00
51876;BME280;34054;52.100;5.116;2023-11-21T00:50:31;100901.06;;;9.84;100.00
51876;BME280;34054;52.100;5.116;2023-11-21T00:51:03;100900.03;;;9.90;100.00
51876;BME280;34054;52.100;5.116;2023-11-21T00:51:37;100901.69;;;9.92;100.00
51876;BME280;34054;52.100;5.116;2023-11-21T00:52:09;100901.69;;;9.92;100.00
51876;BME280;34054;52.100;5.116;2023-11-21T00:52:41;100898.34;;;9.84;100.00
51876;BME280;34054;52.100;5.116;2023-11-21T00:53:12;100902.88;;;9.79;100.00
51876;BME280;34054;52.100;5.116;2023-11-21T00:53:45;100901.53;;;9.81;100.00
51876;BME280;34054;52.100;5.116;2023-11-21T00:54:17;100899.19;;;9.85;100.00
51876;BME280;34054;52.100;5.116;2023-11-21T00:54:49;100904.34;;;9.86;100.00
51876;BME280;34054;52.100;5.116;2023-11-21T00:55:21;100902.75;;;9.90;100.00
51876;BME280;34054;52.100;5.116;2023-11-21T00:55:53;100903.59;;;9.91;100.00
51876;BME280;34054;52.100;5.116;2023-11-21T00:56:28;100897.59;;;9.89;100.00
51876;BME280;34054;52.100;5.116;2023-11-21T00:57:00;100910.34;;;9.88;100.00
51876;BME280;34054;52.100;5.116;2023-11-21T00:57:31;100917.38;;;9.89;100.00
51876;BME280;34054;52.100;5.116;2023-11-21T00:58:04;100908.25;;;9.96;100.00
51876;BME280;34054;52.100;5.116;2023-11-21T00:58:36;100919.69;;;9.98;100.00
51876;BME280;34054;52.100;5.116;2023-11-21T00:59:07;100914.81;;;10.00;100.00
51876;BME280;34054;52.100;5.116;2023-11-21T00:59:41;100914.44;;;9.91;100.00
51876;BME280;34054;52.100;5.116;2023-11-21T01:00:14;100917.38;;;9.89;100.00
51876;BME280;34054;52.100;5.116;2023-11-21T01:00:48;100917.16;;;9.91;100.00
51876;BME280;34054;52.100;5.116;2023-11-21T01:01:21;100914.94;;;9.88;100.00
51876;BME280;34054;52.100;5.116;2023-11-21T01:01:56;100922.75;;;9.84;100.00
51876;BME280;34054;52.100;5.116;2023-11-21T01:02:31;100917.81;;;9.81;100.00
51876;BME280;34054;52.100;5.116;2023-11-21T01:03:02;100919.41;;;9.77;100.00
51876;BME280;34054;52.100;5.116;2023-11-21T01:03:35;100922.13;;;9.77;100.00
51876;BME280;34054;52.100;5.116;2023-11-21T01:04:07;100920.78;;;9.80;100.00
51876;BME280;34054;52.100;5.116;2023-11-21T01:04:38;100927.09;;;9.85;100.00
51876;BME280;34054;52.100;5.116;2023-11-21T01:05:10;100922.31;;;9.93;100.00
51876;BME280;34054;52.100;5.116;2023-11-21T01:05:42;100928.91;;;9.97;100.00
51876;BME280;34054;52.100;5.116;2023-11-21T01:06:14;100926.09;;;9.92;100.00
51876;BME280;34054;52.100;5.116;2023-11-21T01:06:46;100919.59;;;9.93;100.00
51876;BME280;34054;52.100;5.116;2023-11-21T01:07:18;100916.84;;;9.87;100.00
51876;BME280;34054;52.100;5.116;2023-11-21T01:07:51;100920.03;;;9.84;100.00
51876;BME280;34054;52.100;5.116;2023-11-21T01:08:23;100925.03;;;9.93;100.00
51876;BME280;34054;52.100;5.116;2023-11-21T01:08:55;100924.47;;;9.90;100.00
51876;BME280;34054;52.100;5.116;2023-11-21T01:09:26;100922.41;;;9.98;100.00
51876;BME280;34054;52.100;5.116;2023-11-21T01:09:59;100921.09;;;10.00;100.00
51876;BME280;34054;52.100;5.116;2023-11-21T01:10:31;100924.91;;;10.04;100.00
51876;BME280;34054;52.100;5.116;2023-11-21T01:11:03;100924.88;;;9.99;100.00
51876;BME280;34054;52.100;5.116;2023-11-21T01:11:36;100929.72;;;9.97;100.00
51876;BME280;34054;52.100;5.116;2023-11-21T01:12:08;100933.91;;;10.05;100.00
51876;BME280;34054;52.100;5.116;2023-11-21T01:12:40;100926.75;;;9.99;100.00
51876;BME280;34054;52.100;5.116;2023-11-21T01:13:13;100929.41;;;9.94;100.00
51876;BME280;34054;52.100;5.116;2023-11-21T01:13:47;100928.81;;;9.92;100.00
51876;BME280;34054;52.100;5.116;2023-11-21T01:14:19;100928.75;;;9.86;100.00
51876;BME280;34054;52.100;5.116;2023-11-21T01:14:50;100929.88;;;9.90;100.00
51876;BME280;34054;52.100;5.116;2023-11-21T01:15:22;100930.13;;;9.89;100.00
51876;BME280;34054;52.100;5.116;2023-11-21T01:15:57;100932.09;;;9.94;100.00
51876;BME280;34054;52.100;5.116;2023-11-21T01:16:28;100935.97;;;9.98;100.00
51876;BME280;34054;52.100;5.116;2023-11-21T01:17:01;100932.59;;;9.90;100.00
51876;BME280;34054;52.100;5.116;2023-11-21T01:17:35;100931.03;;;9.95;100.00
51876;BME280;34054;52.100;5.116;2023-11-21T01:18:10;100922.59;;;9.91;100.00
51876;BME280;34054;52.100;5.116;2023-11-21T01:18:42;100927.69;;;9.87;100.00
51876;BME280;34054;52.100;5.116;2023-11-21T01:19:13;100933.00;;;9.99;100.00
51876;BME280;34054;52.100;5.116;2023-11-21T01:19:45;100930.16;;;10.11;100.00
51876;BME280;34054;52.100;5.116;2023-11-21T01:20:17;100932.31;;;10.09;100.00
51876;BME280;34054;52.100;5.116;2023-11-21T01:20:49;100931.41;;;10.03;100.00
51876;BME280;34054;52.100;5.116;2023-11-21T01:21:20;100925.13;;;9.98;100.00
51876;BME280;34054;52.100;5.116;2023-11-21T01:21:52;100916.91;;;9.93;100.00
51876;BME280;34054;52.100;5.116;2023-11-21T01:22:25;100926.94;;;9.92;100.00
51876;BME280;34054;52.100;5.116;2023-11-21T01:22:57;100935.13;;;9.97;100.00
51876;BME280;34054;52.100;5.116;2023-11-21T01:23:28;100928.31;;;9.95;100.00
51876;BME280;34054;52.100;5.116;2023-11-21T01:24:00;100933.16;;;9.93;100.00
51876;BME280;34054;52.100;5.116;2023-11-21T01:24:33;100922.06;;;9.94;100.00
51876;BME280;34054;52.100;5.116;2023-11-21T01:25:05;100922.97;;;10.00;100.00
51876;BME280;34054;52.100;5.116;2023-11-21T01:25:38;100927.31;;;10.01;100.00
51876;BME280;34054;52.100;5.116;2023-11-21T01:26:10;100926.31;;;10.07;100.00
51876;BME280;34054;52.100;5.116;2023-11-21T01:26:42;100929.28;;;10.05;100.00
51876;BME280;34054;52.100;5.116;2023-11-21T01:27:16;100927.94;;;10.08;100.00
51876;BME280;34054;52.100;5.116;2023-11-21T01:27:48;100938.81;;;10.08;100.00
51876;BME280;34054;52.100;5.116;2023-11-21T01:28:20;100936.66;;;10.10;100.00
51876;BME280;34054;52.100;5.116;2023-11-21T01:28:52;100928.78;;;10.09;100.00
51876;BME280;34054;52.100;5.116;2023-11-21T01:29:24;100939.06;;;10.06;100.00
51876;BME280;34054;52.100;5.116;2023-11-21T01:29:55;100934.88;;;9.99;100.00
51876;BME280;34054;52.100;5.116;2023-11-21T01:30:27;100939.75;;;9.97;100.00
51876;BME280;34054;52.100;5.116;2023-11-21T01:30:59;100931.78;;;9.90;100.00
51876;BME280;34054;52.100;5.116;2023-11-21T01:31:31;100936.91;;;9.86;100.00
51876;BME280;34054;52.100;5.116;2023-11-21T01:32:04;100924.41;;;9.68;100.00
51876;BME280;34054;52.100;5.116;2023-11-21T01:32:39;100931.75;;;9.68;100.00
51876;BME280;34054;52.100;5.116;2023-11-21T01:33:10;100937.91;;;9.63;100.00
51876;BME280;34054;52.100;5.116;2023-11-21T01:33:42;100935.59;;;9.72;100.00
51876;BME280;34054;52.100;5.116;2023-11-21T01:34:13;100941.59;;;9.74;100.00
51876;BME280;34054;52.100;5.116;2023-11-21T01:34:47;100938.97;;;9.79;100.00
51876;BME280;34054;52.100;5.116;2023-11-21T01:35:18;100943.06;;;9.82;100.00
51876;BME280;34054;52.100;5.116;2023-11-21T01:35:50;100933.28;;;9.81;100.00
51876;BME280;34054;52.100;5.116;2023-11-21T01:36:30;100934.88;;;9.77;100.00
51876;BME280;34054;52.100;5.116;2023-11-21T01:37:04;100934.59;;;9.78;100.00
51876;BME280;34054;52.100;5.116;2023-11-21T01:37:36;100932.63;;;9.73;100.00
51876;BME280;34054;52.100;5.116;2023-11-21T01:38:08;100930.19;;;9.55;100.00
51876;BME280;34054;52.100;5.116;2023-11-21T01:38:40;100935.69;;;9.43;100.00
51876;BME280;34054;52.100;5.116;2023-11-21T01:39:13;100934.06;;;9.25;100.00
51876;BME280;34054;52.100;5.116;2023-11-21T01:39:46;100931.31;;;9.08;100.00
51876;BME280;34054;52.100;5.116;2023-11-21T01:40:18;100935.50;;;8.99;100.00
51876;BME280;34054;52.100;5.116;2023-11-21T01:40:52;100942.16;;;8.91;100.00
51876;BME280;34054;52.100;5.116;2023-11-21T01:41:23;100941.69;;;8.82;100.00
51876;BME280;34054;52.100;5.116;2023-11-21T01:41:55;100928.41;;;8.80;100.00
51876;BME280;34054;52.100;5.116;2023-11-21T01:42:29;100939.00;;;8.82;100.00
51876;BME280;34054;52.100;5.116;2023-11-21T01:43:01;100939.47;;;8.79;100.00
51876;BME280;34054;52.100;5.116;2023-11-21T01:43:34;100938.75;;;8.84;100.00
51876;BME280;34054;52.100;5.116;2023-11-21T01:44:05;100946.97;;;8.89;100.00
51876;BME280;34054;52.100;5.116;2023-11-21T01:44:40;100947.91;;;8.94;100.00
51876;BME280;34054;52.100;5.116;2023-11-21T01:45:12;100946.44;;;9.04;100.00
51876;BME280;34054;52.100;5.116;2023-11-21T01:45:44;100948.16;;;9.10;100.00
51876;BME280;34054;52.100;5.116;2023-11-21T01:46:16;100940.44;;;9.19;100.00
51876;BME280;34054;52.100;5.116;2023-11-21T01:46:47;100945.31;;;9.34;100.00
51876;BME280;34054;52.100;5.116;2023-11-21T01:47:20;100946.97;;;9.35;100.00
51876;BME280;34054;52.100;5.116;2023-11-21T01:47:53;100950.38;;;9.47;100.00
51876;BME280;34054;52.100;5.116;2023-11-21T01:48:25;100950.06;;;9.61;100.00
51876;BME280;34054;52.100;5.116;2023-11-21T01:48:58;100953.69;;;9.66;100.00
51876;BME280;34054;52.100;5.116;2023-11-21T01:49:31;100954.34;;;9.73;100.00
51876;BME280;34054;52.100;5.116;2023-11-21T01:50:06;100951.19;;;9.82;100.00
51876;BME280;34054;52.100;5.116;2023-11-21T01:50:39;100948.88;;;9.90;100.00
51876;BME280;34054;52.100;5.116;2023-11-21T01:51:10;100952.25;;;9.98;100.00
51876;BME280;34054;52.100;5.116;2023-11-21T01:51:44;100951.16;;;9.99;100.00
51876;BME280;34054;52.100;5.116;2023-11-21T01:52:20;100954.84;;;10.10;100.00
51876;BME280;34054;52.100;5.116;2023-11-21T01:52:52;100954.34;;;10.13;100.00
51876;BME280;34054;52.100;5.116;2023-11-21T01:53:25;100957.31;;;10.11;100.00
51876;BME280;34054;52.100;5.116;2023-11-21T01:53:58;100959.53;;;10.14;100.00
51876;BME280;34054;52.100;5.116;2023-11-21T01:54:30;100955.41;;;10.12;100.00
51876;BME280;34054;52.100;5.116;2023-11-21T01:55:03;100961.97;;;10.16;100.00
51876;BME280;34054;52.100;5.116;2023-11-21T01:55:37;100953.91;;;10.21;100.00
51876;BME280;34054;52.100;5.116;2023-11-21T01:56:10;100964.00;;;10.26;100.00
51876;BME280;34054;52.100;5.116;2023-11-21T01:56:41;100962.66;;;10.28;100.00
51876;BME280;34054;52.100;5.116;2023-11-21T01:57:13;100967.28;;;10.28;100.00
51876;BME280;34054;52.100;5.116;2023-11-21T01:57:47;100967.88;;;10.30;100.00
51876;BME280;34054;52.100;5.116;2023-11-21T01:58:19;100970.19;;;10.38;100.00
51876;BME280;34054;52.100;5.116;2023-11-21T01:58:53;100970.97;;;10.39;100.00
51876;BME280;34054;52.100;5.116;2023-11-21T01:59:26;100973.47;;;10.40;100.00
51876;BME280;34054;52.100;5.116;2023-11-21T01:59:59;100974.94;;;10.31;100.00
51876;BME280;34054;52.100;5.116;2023-11-21T02:00:46;100970.81;;;10.45;100.00
51876;BME280;34054;52.100;5.116;2023-11-21T02:01:19;100976.53;;;10.49;100.00
51876;BME280;34054;52.100;5.116;2023-11-21T02:01:51;100977.13;;;10.51;100.00
51876;BME280;34054;52.100;5.116;2023-11-21T02:02:24;100973.56;;;10.50;100.00
51876;BME280;34054;52.100;5.116;2023-11-21T02:02:56;100975.22;;;10.51;100.00
51876;BME280;34054;52.100;5.116;2023-11-21T02:03:30;100981.47;;;10.52;100.00
51876;BME280;34054;52.100;5.116;2023-11-21T02:04:02;100977.94;;;10.51;100.00
51876;BME280;34054;52.100;5.116;2023-11-21T02:04:34;100973.19;;;10.42;100.00
51876;BME280;34054;52.100;5.116;2023-11-21T02:05:08;100978.31;;;10.38;100.00
51876;BME280;34054;52.100;5.116;2023-11-21T02:05:40;100972.91;;;10.21;100.00
51876;BME280;34054;52.100;5.116;2023-11-21T02:06:11;100976.63;;;10.15;100.00
51876;BME280;34054;52.100;5.116;2023-11-21T02:06:43;100978.22;;;10.11;100.00
51876;BME280;34054;52.100;5.116;2023-11-21T02:07:16;100982.00;;;9.93;100.00
51876;BME280;34054;52.100;5.116;2023-11-21T02:07:50;100973.06;;;9.75;100.00
51876;BME280;34054;52.100;5.116;2023-11-21T02:08:23;100974.31;;;9.67;100.00
51876;BME280;34054;52.100;5.116;2023-11-21T02:08:55;100976.19;;;9.67;100.00
51876;BME280;34054;52.100;5.116;2023-11-21T02:09:27;100979.50;;;9.69;100.00
51876;BME280;34054;52.100;5.116;2023-11-21T02:10:00;100978.66;;;9.68;100.00
51876;BME280;34054;52.100;5.116;2023-11-21T02:10:32;100982.69;;;9.66;100.00
51876;BME280;34054;52.100;5.116;2023-11-21T02:11:06;100982.50;;;9.55;100.00
51876;BME280;34054;52.100;5.116;2023-11-21T02:11:38;100985.75;;;9.52;100.00
51876;BME280;34054;52.100;5.116;2023-11-21T02:12:10;100981.19;;;9.41;100.00
51876;BME280;34054;52.100;5.116;2023-11-21T02:12:42;100986.03;;;9.39;100.00
51876;BME280;34054;52.100;5.116;2023-11-21T02:13:13;100983.69;;;9.42;100.00
51876;BME280;34054;52.100;5.116;2023-11-21T02:13:47;100982.84;;;9.42;100.00
51876;BME280;34054;52.100;5.116;2023-11-21T02:14:21;100986.41;;;9.42;100.00
51876;BME280;34054;52.100;5.116;2023-11-21T02:14:53;100979.00;;;9.38;100.00
51876;BME280;34054;52.100;5.116;2023-11-21T02:15:24;100984.06;;;9.34;100.00
51876;BME280;34054;52.100;5.116;2023-11-21T02:15:59;100984.06;;;9.34;100.00
51876;BME280;34054;52.100;5.116;2023-11-21T02:16:31;100985.56;;;9.25;100.00
51876;BME280;34054;52.100;5.116;2023-11-21T02:17:04;100985.06;;;9.28;100.00
51876;BME280;34054;52.100;5.116;2023-11-21T02:17:37;100985.97;;;9.34;100.00
51876;BME280;34054;52.100;5.116;2023-11-21T02:18:10;100986.44;;;9.31;100.00
51876;BME280;34054;52.100;5.116;2023-11-21T02:18:42;100998.00;;;9.26;100.00
51876;BME280;34054;52.100;5.116;2023-11-21T02:19:18;100996.78;;;9.17;100.00
51876;BME280;34054;52.100;5.116;2023-11-21T02:19:51;100988.66;;;9.17;100.00
51876;BME280;34054;52.100;5.116;2023-11-21T02:20:23;100987.03;;;9.16;100.00
51876;BME280;34054;52.100;5.116;2023-11-21T02:20:56;100991.84;;;9.14;100.00
51876;BME280;34054;52.100;5.116;2023-11-21T02:21:28;100996.03;;;9.21;100.00
51876;BME280;34054;52.100;5.116;2023-11-21T02:22:01;100996.41;;;9.25;100.00
51876;BME280;34054;52.100;5.116;2023-11-21T02:22:38;100993.94;;;9.40;100.00
51876;BME280;34054;52.100;5.116;2023-11-21T02:23:14;100980.31;;;9.52;100.00
51876;BME280;34054;52.100;5.116;2023-11-21T02:23:45;100990.25;;;9.64;100.00
51876;BME280;34054;52.100;5.116;2023-11-21T02:24:18;100980.81;;;9.66;100.00
51876;BME280;34054;52.100;5.116;2023-11-21T02:24:52;100984.75;;;9.76;100.00
51876;BME280;34054;52.100;5.116;2023-11-21T02:25:23;100988.38;;;9.64;100.00
51876;BME280;34054;52.100;5.116;2023-11-21T02:25:55;100979.72;;;9.50;100.00
51876;BME280;34054;52.100;5.116;2023-11-21T02:26:28;100975.03;;;9.46;100.00
51876;BME280;34054;52.100;5.116;2023-11-21T02:26:59;100989.50;;;9.51;100.00
51876;BME280;34054;52.100;5.116;2023-11-21T02:27:31;100989.25;;;9.53;100.00
51876;BME280;34054;52.100;5.116;2023-11-21T02:28:03;100980.88;;;9.37;100.00
51876;BME280;34054;52.100;5.116;2023-11-21T02:28:37;100992.88;;;9.41;100.00
51876;BME280;34054;52.100;5.116;2023-11-21T02:29:09;100988.84;;;9.44;100.00
51876;BME280;34054;52.100;5.116;2023-11-21T02:29:43;100991.75;;;9.54;100.00
51876;BME280;34054;52.100;5.116;2023-11-21T02:30:14;100986.38;;;9.59;100.00
51876;BME280;34054;52.100;5.116;2023-11-21T02:30:47;100994.13;;;9.51;100.00
51876;BME280;34054;52.100;5.116;2023-11-21T02:31:26;100996.41;;;9.42;100.00
51876;BME280;34054;52.100;5.116;2023-11-21T02:31:58;100992.97;;;9.30;100.00
51876;BME280;34054;52.100;5.116;2023-11-21T02:32:30;100994.97;;;9.22;100.00
51876;BME280;34054;52.100;5.116;2023-11-21T02:33:02;100995.38;;;9.14;100.00
51876;BME280;34054;52.100;5.116;2023-11-21T02:33:34;100996.03;;;9.21;100.00
51876;BME280;34054;52.100;5.116;2023-11-21T02:34:05;100995.16;;;9.16;100.00
51876;BME280;34054;52.100;5.116;2023-11-21T02:34:38;100991.72;;;9.20;100.00
51876;BME280;34054;52.100;5.116;2023-11-21T02:35:10;100990.28;;;9.18;100.00
51876;BME280;34054;52.100;5.116;2023-11-21T02:35:43;100985.84;;;9.11;100.00
51876;BME280;34054;52.100;5.116;2023-11-21T02:36:16;101000.06;;;9.19;100.00
51876;BME280;34054;52.100;5.116;2023-11-21T02:36:47;100997.34;;;9.19;100.00
51876;BME280;34054;52.100;5.116;2023-11-21T02:37:20;100997.59;;;9.17;100.00
51876;BME280;34054;52.100;5.116;2023-11-21T02:37:52;100992.09;;;9.12;100.00
51876;BME280;34054;52.100;5.116;2023-11-21T02:38:26;100998.25;;;9.07;100.00
51876;BME280;34054;52.100;5.116;2023-11-21T02:38:57;100997.16;;;9.08;100.00
51876;BME280;34054;52.100;5.116;2023-11-21T02:39:29;100999.16;;;9.13;100.00
51876;BME280;34054;52.100;5.116;2023-11-21T02:40:01;100992.53;;;9.21;100.00
51876;BME280;34054;52.100;5.116;2023-11-21T02:40:35;100996.22;;;9.32;100.00
51876;BME280;34054;52.100;5.116;2023-11-21T02:41:07;100990.41;;;9.40;100.00
51876;BME280;34054;52.100;5.116;2023-11-21T02:41:39;100991.31;;;9.46;100.00
51876;BME280;34054;52.100;5.116;2023-11-21T02:42:11;100995.19;;;9.50;100.00
51876;BME280;34054;52.100;5.116;2023-11-21T02:42:43;100994.44;;;9.54;100.00
51876;BME280;34054;52.100;5.116;2023-11-21T02:43:15;100994.69;;;9.53;100.00
51876;BME280;34054;52.100;5.116;2023-11-21T02:43:47;100994.84;;;9.63;100.00
51876;BME280;34054;52.100;5.116;2023-11-21T02:44:18;100992.56;;;9.72;100.00
51876;BME280;34054;52.100;5.116;2023-11-21T02:44:51;100993.38;;;9.72;100.00
51876;BME280;34054;52.100;5.116;2023-11-21T02:45:23;100994.69;;;9.70;100.00
51876;BME280;34054;52.100;5.116;2023-11-21T02:45:55;101000.19;;;9.75;100.00
51876;BME280;34054;52.100;5.116;2023-11-21T02:46:26;100995.44;;;9.65;100.00
51876;BME280;34054;52.100;5.116;2023-11-21T02:46:59;100992.47;;;9.67;100.00
51876;BME280;34054;52.100;5.116;2023-11-21T02:47:31;100996.09;;;9.72;100.00
51876;BME280;34054;52.100;5.116;2023-11-21T02:48:03;100996.16;;;9.78;100.00
51876;BME280;34054;52.100;5.116;2023-11-21T02:48:37;100998.38;;;9.81;100.00
51876;BME280;34054;52.100;5.116;2023-11-21T02:49:08;100996.41;;;9.76;100.00